createdAt,value
2022-07-28T00:01:44.220Z,17.63
2022-07-28T00:04:14.170Z,17.76
2022-07-28T00:06:42.490Z,17.75
2022-07-28T00:09:10.534Z,17.61
2022-07-28T00:11:54.433Z,17.62
2022-07-28T00:14:23.126Z,17.64
2022-07-28T00:16:51.314Z,17.60
2022-07-28T00:19:21.219Z,17.59
2022-07-28T00:21:49.393Z,17.59
2022-07-28T00:24:17.716Z,17.63
2022-07-28T00:26:46.863Z,17.51
2022-07-28T00:29:15.137Z,17.38
2022-07-28T00:31:43.295Z,17.49
2022-07-28T00:34:12.261Z,17.52
2022-07-28T00:36:44.556Z,17.46
2022-07-28T00:39:12.839Z,17.47
2022-07-28T00:41:42.678Z,17.44
2022-07-28T00:44:11.347Z,17.55
2022-07-28T00:46:39.727Z,17.51
2022-07-28T00:49:08.147Z,17.54
2022-07-28T00:51:36.428Z,17.51
2022-07-28T00:54:05.861Z,17.51
2022-07-28T00:56:34.300Z,17.68
2022-07-28T00:59:02.775Z,17.80
2022-07-28T01:01:30.988Z,17.87
2022-07-28T01:04:01.921Z,17.80
2022-07-28T01:06:44.132Z,17.33
2022-07-28T01:09:20.831Z,17.29
2022-07-28T01:11:52.189Z,17.29
2022-07-28T01:14:24.897Z,17.62
2022-07-28T01:16:56.667Z,17.41
2022-07-28T01:19:39.290Z,17.24
2022-07-28T01:22:10.515Z,17.13
2022-07-28T01:24:50.833Z,16.96
2022-07-28T01:27:39.727Z,16.94
2022-07-28T01:30:09.346Z,17.00
2022-07-28T01:32:41.343Z,16.82
2022-07-28T01:35:17.545Z,16.78
2022-07-28T01:37:47.137Z,16.75
2022-07-28T01:40:17.713Z,16.78
2022-07-28T01:42:47.538Z,16.72
2022-07-28T01:45:19.074Z,16.82
2022-07-28T01:47:51.879Z,16.59
2022-07-28T01:50:23.719Z,16.66
2022-07-28T01:52:52.461Z,16.53
2022-07-28T01:55:22.020Z,16.26
2022-07-28T01:57:51.139Z,16.12
2022-07-28T02:00:19.386Z,16.45
2022-07-28T02:02:50.099Z,16.30
2022-07-28T02:05:21.906Z,16.29
2022-07-28T02:07:51.332Z,16.31
2022-07-28T02:10:19.730Z,16.34
2022-07-28T02:12:49.878Z,16.33
2022-07-28T02:15:18.778Z,16.29
2022-07-28T02:17:47.357Z,16.27
2022-07-28T02:20:19.935Z,16.15
2022-07-28T02:22:52.097Z,16.12
2022-07-28T02:25:20.538Z,16.15
2022-07-28T02:27:50.310Z,16.14
2022-07-28T02:30:19.338Z,16.07
2022-07-28T02:32:50.945Z,16.04
2022-07-28T02:35:25.586Z,16.02
2022-07-28T02:38:00.523Z,16.02
2022-07-28T02:40:32.394Z,16.28
2022-07-28T02:43:00.623Z,16.09
2022-07-28T02:45:29.501Z,15.94
2022-07-28T02:47:59.377Z,15.78
2022-07-28T02:50:29.706Z,15.89
2022-07-28T02:53:00.195Z,15.81
2022-07-28T02:55:29.042Z,15.98
2022-07-28T02:57:58.192Z,15.97
2022-07-28T03:00:26.741Z,15.91
2022-07-28T03:02:57.602Z,15.89
2022-07-28T03:05:25.990Z,15.89
2022-07-28T03:07:58.681Z,15.87
2022-07-28T03:10:33.707Z,15.88
2022-07-28T03:13:03.397Z,15.85
2022-07-28T03:15:32.028Z,15.81
2022-07-28T03:18:00.630Z,15.78
2022-07-28T03:20:28.710Z,15.72
2022-07-28T03:22:59.077Z,15.75
2022-07-28T03:25:28.546Z,15.92
2022-07-28T03:28:00.356Z,15.75
2022-07-28T03:30:30.439Z,15.71
2022-07-28T03:33:00.000Z,15.72
2022-07-28T03:35:28.677Z,15.73
2022-07-28T03:37:59.961Z,15.70
2022-07-28T03:40:29.899Z,15.69
2022-07-28T03:42:58.502Z,15.82
2022-07-28T03:45:27.887Z,15.71
2022-07-28T03:47:56.646Z,15.68
2022-07-28T03:50:27.948Z,15.63
2022-07-28T03:53:00.394Z,15.53
2022-07-28T03:55:28.468Z,15.69
2022-07-28T03:57:57.702Z,15.53
2022-07-28T04:00:26.684Z,15.43
2022-07-28T04:02:54.788Z,15.60
2022-07-28T04:05:22.855Z,15.75
2022-07-28T04:07:53.286Z,15.72
2022-07-28T04:10:22.912Z,15.57
2022-07-28T04:12:51.723Z,15.33
2022-07-28T04:15:20.607Z,15.36
2022-07-28T04:17:49.548Z,15.29
2022-07-28T04:20:18.376Z,15.30
2022-07-28T04:22:46.744Z,15.32
2022-07-28T04:25:15.597Z,15.57
2022-07-28T04:27:45.264Z,15.73
2022-07-28T04:30:17.084Z,15.92
2022-07-28T04:32:45.381Z,15.86
2022-07-28T04:35:17.321Z,15.88
2022-07-28T04:37:46.381Z,15.82
2022-07-28T04:40:14.636Z,16.05
2022-07-28T04:42:43.065Z,15.98
2022-07-28T04:45:13.586Z,16.23
2022-07-28T04:47:41.662Z,16.13
2022-07-28T04:50:11.016Z,16.21
2022-07-28T04:52:39.956Z,16.75
2022-07-28T04:55:08.702Z,16.48
2022-07-28T04:57:36.830Z,16.19
2022-07-28T05:00:11.887Z,16.23
2022-07-28T05:02:46.013Z,16.28
2022-07-28T05:05:14.176Z,16.21
2022-07-28T05:07:42.686Z,15.97
2022-07-28T05:10:11.734Z,16.13
2022-07-28T05:12:39.775Z,16.24
2022-07-28T05:15:10.592Z,16.31
2022-07-28T05:17:39.039Z,16.65
2022-07-28T05:20:09.377Z,16.25
2022-07-28T05:22:43.588Z,16.50
2022-07-28T05:25:18.662Z,16.32
2022-07-28T05:27:47.450Z,16.37
2022-07-28T05:30:15.554Z,16.59
2022-07-28T05:32:45.182Z,16.60
2022-07-28T05:35:14.675Z,16.78
2022-07-28T05:37:44.944Z,16.38
2022-07-28T05:40:14.716Z,16.34
2022-07-28T05:42:43.374Z,16.67
2022-07-28T05:45:15.718Z,18.21
2022-07-28T05:47:46.327Z,18.66
2022-07-28T05:50:15.963Z,18.75
2022-07-28T05:52:44.006Z,19.57
2022-07-28T05:55:15.211Z,20.70
2022-07-28T05:57:43.298Z,20.42
2022-07-28T06:00:12.805Z,21.80
2022-07-28T06:02:40.959Z,20.88
2022-07-28T06:05:09.457Z,21.35
2022-07-28T06:07:43.723Z,20.77
2022-07-28T06:10:13.296Z,22.49
2022-07-28T06:12:41.922Z,22.92
2022-07-28T06:15:13.426Z,23.05
2022-07-28T06:17:41.797Z,22.35
2022-07-28T06:20:10.577Z,21.70
2022-07-28T06:22:44.590Z,23.08
2022-07-28T06:25:14.020Z,22.05
2022-07-28T06:27:42.241Z,21.31
2022-07-28T06:30:10.638Z,22.15
2022-07-28T06:32:38.884Z,22.84
2022-07-28T06:35:07.864Z,21.30
2022-07-28T06:37:35.976Z,22.00
2022-07-28T06:40:07.225Z,21.33
2022-07-28T06:42:35.317Z,18.36
2022-07-28T06:45:03.389Z,19.02
2022-07-28T06:47:31.467Z,18.46
2022-07-28T06:49:59.631Z,19.53
2022-07-28T06:52:28.065Z,19.33
2022-07-28T06:55:00.364Z,19.17
2022-07-28T06:57:33.813Z,18.61
2022-07-28T07:00:04.121Z,19.56
2022-07-28T07:02:32.183Z,19.21
2022-07-28T07:05:00.219Z,19.83
2022-07-28T07:07:28.284Z,19.47
2022-07-28T07:09:56.347Z,19.56
2022-07-28T07:12:24.433Z,19.51
2022-07-28T07:14:54.065Z,20.12
2022-07-28T07:17:22.128Z,19.25
2022-07-28T07:19:50.238Z,19.63
2022-07-28T07:22:20.379Z,20.06
2022-07-28T07:24:50.475Z,20.13
2022-07-28T07:27:21.716Z,20.46
2022-07-28T07:29:51.903Z,20.30
2022-07-28T07:32:21.388Z,20.43
2022-07-28T07:34:49.609Z,20.66
2022-07-28T07:37:17.695Z,21.18
2022-07-28T07:39:45.789Z,20.55
2022-07-28T07:42:13.840Z,20.29
2022-07-28T07:44:41.900Z,20.63
2022-07-28T07:47:18.290Z,21.10
2022-07-28T07:49:47.738Z,20.48
2022-07-28T07:52:16.532Z,20.90
2022-07-28T07:54:45.410Z,21.16
2022-07-28T07:57:14.300Z,20.98
2022-07-28T07:59:42.332Z,21.21
2022-07-28T08:02:10.434Z,21.12
2022-07-28T08:04:39.206Z,20.92
2022-07-28T08:07:09.881Z,20.81
2022-07-28T08:09:37.982Z,20.78
2022-07-28T08:12:06.859Z,22.00
2022-07-28T08:14:35.012Z,21.25
2022-07-28T08:17:03.104Z,21.61
2022-07-28T08:19:31.272Z,21.64
2022-07-28T08:21:59.373Z,21.92
2022-07-28T08:24:32.802Z,22.47
2022-07-28T08:27:02.161Z,21.86
2022-07-28T08:29:30.254Z,22.28
2022-07-28T08:31:58.385Z,22.70
2022-07-28T08:34:32.690Z,23.01
2022-07-28T08:37:02.250Z,22.69
2022-07-28T08:39:34.790Z,22.76
2022-07-28T08:42:05.497Z,22.35
2022-07-28T08:44:37.111Z,22.77
2022-07-28T08:47:05.734Z,23.00
2022-07-28T08:49:34.324Z,23.07
2022-07-28T08:52:11.004Z,23.15
2022-07-28T08:54:42.113Z,23.09
2022-07-28T08:57:11.166Z,22.83
2022-07-28T08:59:39.876Z,22.89
2022-07-28T09:02:12.256Z,22.76
2022-07-28T09:04:41.157Z,22.09
2022-07-28T09:07:09.456Z,23.27
2022-07-28T09:09:38.399Z,23.05
2022-07-28T09:12:08.157Z,23.29
2022-07-28T09:14:36.416Z,23.24
2022-07-28T09:17:05.484Z,23.74
2022-07-28T09:19:35.779Z,24.17
2022-07-28T09:22:04.212Z,24.02
2022-07-28T09:24:36.453Z,24.10
2022-07-28T09:27:06.707Z,23.74
2022-07-28T09:29:40.612Z,23.86
2022-07-28T09:32:11.194Z,23.89
2022-07-28T09:34:42.917Z,23.42
2022-07-28T09:37:24.829Z,24.01
2022-07-28T09:39:57.945Z,24.52
2022-07-28T09:42:26.387Z,24.36
2022-07-28T09:45:22.424Z,24.37
2022-07-28T09:48:08.865Z,24.35
2022-07-28T09:50:37.223Z,24.87
2022-07-28T09:53:20.159Z,24.49
2022-07-28T09:55:55.217Z,24.64
2022-07-28T09:58:23.329Z,25.21
2022-07-28T10:01:09.796Z,25.02
2022-07-28T10:03:40.558Z,24.96
2022-07-28T10:06:09.362Z,25.37
2022-07-28T10:08:41.990Z,25.41
2022-07-28T10:11:10.808Z,26.18
2022-07-28T10:13:52.201Z,26.31
2022-07-28T10:16:22.780Z,26.03
2022-07-28T10:18:50.966Z,26.16
2022-07-28T10:21:20.466Z,26.63
2022-07-28T10:23:49.836Z,26.30
2022-07-28T10:26:18.254Z,26.76
2022-07-28T10:28:48.767Z,27.12
2022-07-28T10:31:21.077Z,27.00
2022-07-28T10:33:52.128Z,26.88
2022-07-28T10:36:23.964Z,27.07
2022-07-28T10:38:55.169Z,26.80
2022-07-28T10:41:30.084Z,27.47
2022-07-28T10:43:58.393Z,27.20
2022-07-28T10:46:27.093Z,26.15
2022-07-28T10:48:56.776Z,26.07
2022-07-28T10:51:28.442Z,26.44
2022-07-28T10:54:02.265Z,25.98
2022-07-28T10:56:36.283Z,26.06
2022-07-28T10:59:07.563Z,26.66
2022-07-28T11:01:51.626Z,26.82
2022-07-28T11:04:38.668Z,27.20
2022-07-28T11:07:11.789Z,27.22
2022-07-28T11:09:40.091Z,26.93
2022-07-28T11:12:09.629Z,27.04
2022-07-28T11:14:39.458Z,27.41
2022-07-28T11:17:13.716Z,26.86
2022-07-28T11:20:25.007Z,27.49
2022-07-28T11:22:41.440Z,27.50
2022-07-28T11:25:22.744Z,27.80
2022-07-28T11:28:04.498Z,27.76
2022-07-28T11:30:52.348Z,28.28
2022-07-28T11:33:21.283Z,27.99
2022-07-28T11:35:59.512Z,27.93
2022-07-28T11:38:29.278Z,28.23
2022-07-28T11:40:57.722Z,27.40
2022-07-28T11:43:39.029Z,27.40
2022-07-28T11:46:23.580Z,27.63
2022-07-28T11:49:19.637Z,27.56
2022-07-28T11:52:02.659Z,27.57
2022-07-28T11:54:32.946Z,27.60
2022-07-28T11:57:02.385Z,27.32
2022-07-28T11:59:40.939Z,27.84
2022-07-28T12:02:09.161Z,27.63
2022-07-28T12:04:38.197Z,28.13
2022-07-28T12:07:07.056Z,28.85
2022-07-28T12:09:42.498Z,27.75
2022-07-28T12:12:10.938Z,27.92
2022-07-28T12:14:39.668Z,27.94
2022-07-28T12:17:10.556Z,27.80
2022-07-28T12:19:40.606Z,28.16
2022-07-28T12:22:15.645Z,27.87
2022-07-28T12:24:45.928Z,28.13
2022-07-28T12:27:16.653Z,28.57
2022-07-28T12:29:47.916Z,28.16
2022-07-28T12:32:18.612Z,28.95
2022-07-28T12:34:46.952Z,28.48
2022-07-28T12:37:15.845Z,28.09
2022-07-28T12:39:51.525Z,28.04
2022-07-28T12:42:19.845Z,28.29
2022-07-28T12:44:48.706Z,28.33
2022-07-28T12:47:17.692Z,28.09
2022-07-28T12:49:45.937Z,27.94
2022-07-28T12:52:17.888Z,29.10
2022-07-28T12:54:52.943Z,29.33
2022-07-28T12:57:43.244Z,28.99
2022-07-28T13:00:18.902Z,29.60
2022-07-28T13:02:47.177Z,29.51
2022-07-28T13:05:54.154Z,29.77
2022-07-28T13:08:22.805Z,29.81
2022-07-28T13:10:57.087Z,29.25
2022-07-28T13:13:25.840Z,29.47
2022-07-28T13:16:12.438Z,30.46
2022-07-28T13:18:40.791Z,30.20
2022-07-28T13:21:09.039Z,30.71
2022-07-28T13:23:37.125Z,30.51
2022-07-28T13:26:07.206Z,29.65
2022-07-28T13:28:39.478Z,29.72
2022-07-28T13:31:07.685Z,30.05
2022-07-28T13:33:35.846Z,29.29
2022-07-28T13:36:03.957Z,29.91
2022-07-28T13:38:33.451Z,28.95
2022-07-28T13:41:01.568Z,28.76
2022-07-28T13:43:35.795Z,28.77
2022-07-28T13:46:06.735Z,28.78
2022-07-28T13:48:40.220Z,28.31
2022-07-28T13:51:28.994Z,28.74
2022-07-28T13:53:57.082Z,28.65
2022-07-28T13:56:41.259Z,28.40
2022-07-28T13:59:10.852Z,28.93
2022-07-28T14:01:41.494Z,29.34
2022-07-28T14:04:14.821Z,29.12
2022-07-28T14:06:45.798Z,29.36
2022-07-28T14:09:18.826Z,30.20
2022-07-28T14:11:53.730Z,30.49
2022-07-28T14:14:24.785Z,29.68
2022-07-28T14:16:54.398Z,29.48
2022-07-28T14:19:39.628Z,29.40
2022-07-28T14:22:13.190Z,29.58
2022-07-28T14:24:44.114Z,29.77
2022-07-28T14:27:12.192Z,29.21
2022-07-28T14:29:43.220Z,29.32
2022-07-28T14:32:11.276Z,29.26
2022-07-28T14:34:40.491Z,29.08
2022-07-28T14:37:09.519Z,29.03
2022-07-28T14:39:38.054Z,29.61
2022-07-28T14:42:06.266Z,29.08
2022-07-28T14:44:37.409Z,28.84
2022-07-28T14:47:07.608Z,28.62
2022-07-28T14:49:36.058Z,29.02
2022-07-28T14:52:04.382Z,28.81
2022-07-28T14:54:34.064Z,29.02
2022-07-28T14:57:02.391Z,29.46
2022-07-28T14:59:30.483Z,30.01
2022-07-28T15:02:01.097Z,31.08
2022-07-28T15:04:32.730Z,30.00
2022-07-28T15:07:00.817Z,30.16
2022-07-28T15:09:28.872Z,29.75
2022-07-28T15:11:59.241Z,30.68
2022-07-28T15:14:27.337Z,30.55
2022-07-28T15:16:55.383Z,31.19
2022-07-28T15:19:23.494Z,30.04
2022-07-28T15:21:52.909Z,30.40
2022-07-28T15:24:22.242Z,29.47
2022-07-28T15:26:50.274Z,29.37
2022-07-28T15:29:19.694Z,29.40
2022-07-28T15:31:49.653Z,30.02
2022-07-28T15:34:18.227Z,29.83
2022-07-28T15:36:46.561Z,29.65
2022-07-28T15:39:15.960Z,29.89
2022-07-28T15:41:44.657Z,29.34
2022-07-28T15:44:16.334Z,29.28
2022-07-28T15:46:46.516Z,29.25
2022-07-28T15:49:15.198Z,29.30
2022-07-28T15:51:43.295Z,28.86
2022-07-28T15:54:11.369Z,29.01
2022-07-28T15:56:41.952Z,29.01
2022-07-28T15:59:10.061Z,29.02
2022-07-28T16:01:43.381Z,29.29
2022-07-28T16:04:13.894Z,28.88
2022-07-28T16:07:14.719Z,28.78
2022-07-28T16:09:45.748Z,28.85
2022-07-28T16:12:16.173Z,28.75
2022-07-28T16:14:44.267Z,28.83
2022-07-28T16:17:14.898Z,28.77
2022-07-28T16:19:49.533Z,28.83
2022-07-28T16:22:18.798Z,29.25
2022-07-28T16:24:50.628Z,29.17
2022-07-28T16:27:20.108Z,29.03
2022-07-28T16:29:49.366Z,29.28
2022-07-28T16:32:17.560Z,28.73
2022-07-28T16:34:45.872Z,28.81
2022-07-28T16:37:19.236Z,28.53
2022-07-28T16:39:48.501Z,28.68
2022-07-28T16:42:16.683Z,28.70
2022-07-28T16:44:47.291Z,28.53
2022-07-28T16:47:15.483Z,28.78
2022-07-28T16:49:45.923Z,28.82
2022-07-28T16:52:14.769Z,28.88
2022-07-28T16:54:46.123Z,29.02
2022-07-28T16:57:17.951Z,28.51
2022-07-28T16:59:48.709Z,28.44
2022-07-28T17:02:20.332Z,28.50
2022-07-28T17:04:48.664Z,28.74
2022-07-28T17:07:16.807Z,28.67
2022-07-28T17:09:45.120Z,28.88
2022-07-28T17:12:15.556Z,29.17
2022-07-28T17:14:43.618Z,29.08
2022-07-28T17:17:13.261Z,29.23
2022-07-28T17:19:46.661Z,28.63
2022-07-28T17:22:15.312Z,28.37
2022-07-28T17:24:43.474Z,28.56
2022-07-28T17:29:59.633Z,28.38
2022-07-28T17:32:29.216Z,28.12
2022-07-28T17:34:57.301Z,28.11
2022-07-28T17:37:27.217Z,27.95
2022-07-28T17:39:58.506Z,27.81
2022-07-28T17:42:26.604Z,27.82
2022-07-28T17:44:59.350Z,27.79
2022-07-28T17:47:35.942Z,27.67
2022-07-28T17:50:07.169Z,27.70
2022-07-28T17:52:35.591Z,27.66
2022-07-28T17:55:23.358Z,27.65
2022-07-28T17:57:54.677Z,27.66
2022-07-28T18:00:22.916Z,27.58
2022-07-28T18:02:52.370Z,27.58
2022-07-28T18:05:22.822Z,27.52
2022-07-28T18:07:53.713Z,27.45
2022-07-28T18:10:25.079Z,27.33
2022-07-28T18:12:55.270Z,27.33
2022-07-28T18:15:23.770Z,27.26
2022-07-28T18:17:56.122Z,27.14
2022-07-28T18:20:24.796Z,27.17
2022-07-28T18:22:53.234Z,27.16
2022-07-28T18:25:21.348Z,27.03
2022-07-28T18:27:50.576Z,27.17
2022-07-28T18:30:19.666Z,27.02
2022-07-28T18:32:47.966Z,27.01
2022-07-28T18:35:17.866Z,27.09
2022-07-28T18:37:46.461Z,26.88
2022-07-28T18:40:15.241Z,26.77
2022-07-28T18:42:43.460Z,26.68
2022-07-28T18:45:14.343Z,26.62
2022-07-28T18:47:45.566Z,26.60
2022-07-28T18:50:30.397Z,26.47
2022-07-28T18:52:59.927Z,26.36
2022-07-28T18:55:28.154Z,26.27
2022-07-28T18:57:56.394Z,26.16
2022-07-28T19:00:24.510Z,26.10
2022-07-28T19:02:52.601Z,26.08
2022-07-28T19:05:22.083Z,25.86
2022-07-28T19:07:50.162Z,25.80
2022-07-28T19:10:18.257Z,25.65
2022-07-28T19:12:48.101Z,25.60
2022-07-28T19:15:16.267Z,25.52
2022-07-28T19:17:44.331Z,25.47
2022-07-28T19:20:12.736Z,25.25
2022-07-28T19:22:42.206Z,25.05
2022-07-28T19:25:10.810Z,24.95
2022-07-28T19:27:39.464Z,24.84
2022-07-28T19:30:08.827Z,24.79
2022-07-28T19:32:38.611Z,24.79
2022-07-28T19:35:07.299Z,24.70
2022-07-28T19:37:36.328Z,24.56
2022-07-28T19:40:07.186Z,24.60
2022-07-28T19:42:37.546Z,24.54
2022-07-28T19:45:06.146Z,24.44
2022-07-28T19:47:36.966Z,24.43
2022-07-28T19:50:05.966Z,24.45
2022-07-28T19:52:37.466Z,24.37
2022-07-28T19:55:10.767Z,24.29
2022-07-28T19:57:42.227Z,24.45
2022-07-28T20:00:10.950Z,24.39
2022-07-28T20:02:41.746Z,24.37
2022-07-28T20:05:10.738Z,24.25
2022-07-28T20:07:38.893Z,24.27
2022-07-28T20:10:09.340Z,24.27
2022-07-28T20:12:37.443Z,24.20
2022-07-28T20:15:08.939Z,24.14
2022-07-28T20:17:39.648Z,24.08
2022-07-28T20:20:08.694Z,24.09
2022-07-28T20:22:39.087Z,24.15
2022-07-28T20:25:10.065Z,24.07
2022-07-28T20:27:40.397Z,23.96
2022-07-28T20:30:09.693Z,24.06
2022-07-28T20:32:37.940Z,24.15
2022-07-28T20:35:07.006Z,24.12
2022-07-28T20:37:36.779Z,24.10
2022-07-28T20:40:05.853Z,24.22
2022-07-28T20:42:37.889Z,24.21
2022-07-28T20:45:06.360Z,24.11
2022-07-28T20:47:34.719Z,23.51
2022-07-28T20:50:05.133Z,21.74
2022-07-28T20:52:33.983Z,21.26
2022-07-28T20:55:02.028Z,20.93
2022-07-28T20:57:30.147Z,20.86
2022-07-28T20:59:59.613Z,20.56
2022-07-28T21:02:27.820Z,20.48
2022-07-28T21:04:55.938Z,20.67
2022-07-28T21:08:00.682Z,20.86
2022-07-28T21:10:12.703Z,20.59
2022-07-28T21:12:41.015Z,20.53
2022-07-28T21:15:10.804Z,20.85
2022-07-28T21:17:38.901Z,20.77
2022-07-28T21:20:07.312Z,21.01
2022-07-28T21:22:35.368Z,20.96
2022-07-28T21:25:03.445Z,21.08
2022-07-28T21:27:52.671Z,21.39
2022-07-28T21:30:27.775Z,21.27
2022-07-28T21:32:56.555Z,21.13
2022-07-28T21:35:24.852Z,21.28
2022-07-28T21:37:53.347Z,21.25
2022-07-28T21:40:24.075Z,21.13
2022-07-28T21:42:52.129Z,21.09
2022-07-28T21:45:20.350Z,20.78
2022-07-28T21:47:49.732Z,20.58
2022-07-28T21:50:17.839Z,20.67
2022-07-28T21:52:45.913Z,20.77
2022-07-28T21:55:14.213Z,20.79
2022-07-28T21:57:42.624Z,20.64
2022-07-28T22:02:38.325Z,20.57
2022-07-28T22:05:09.514Z,20.35
2022-07-28T22:07:37.636Z,20.25
2022-07-28T22:10:06.207Z,20.35
2022-07-28T22:12:36.620Z,20.25
2022-07-28T22:15:05.219Z,20.24
2022-07-28T22:17:33.286Z,20.29
2022-07-28T22:20:02.758Z,20.49
2022-07-28T22:22:32.962Z,20.19
2022-07-28T22:25:01.054Z,19.98
2022-07-28T22:27:29.136Z,20.14
2022-07-28T22:29:57.174Z,19.80
2022-07-28T22:32:28.839Z,19.83
2022-07-28T22:34:57.905Z,19.64
2022-07-28T22:37:27.311Z,19.83
2022-07-28T22:39:55.431Z,19.71
2022-07-28T22:42:23.487Z,19.93
2022-07-28T22:44:51.562Z,19.76
2022-07-28T22:47:19.582Z,19.63
2022-07-28T22:49:47.650Z,19.64
2022-07-28T22:52:15.693Z,19.70
2022-07-28T22:54:45.015Z,19.73
2022-07-28T22:57:13.029Z,19.58
2022-07-28T22:59:42.023Z,19.73
2022-07-28T23:02:15.062Z,19.79
2022-07-28T23:04:44.936Z,19.86
2022-07-28T23:07:16.692Z,19.84
2022-07-28T23:09:47.740Z,19.75
2022-07-28T23:12:15.770Z,19.73
2022-07-28T23:14:43.817Z,19.63
2022-07-28T23:17:11.877Z,19.45
2022-07-28T23:19:39.962Z,19.44
2022-07-28T23:22:07.990Z,19.66
2022-07-28T23:24:36.055Z,19.73
2022-07-28T23:27:05.900Z,19.77
2022-07-28T23:29:36.122Z,19.96
2022-07-28T23:32:04.227Z,19.83
2022-07-28T23:34:32.305Z,19.84
2022-07-28T23:37:00.379Z,19.92
2022-07-28T23:39:30.823Z,19.81
2022-07-28T23:41:58.868Z,19.81
2022-07-28T23:44:28.255Z,19.71
2022-07-28T23:46:56.807Z,19.70
2022-07-28T23:49:27.101Z,19.75
2022-07-28T23:51:55.192Z,19.61
2022-07-28T23:54:23.237Z,19.65
2022-07-28T23:56:52.009Z,19.49
2022-07-28T23:59:20.040Z,19.20
